sensor_id;sensor_type;location;lat;lon;timestamp;P1;durP1;ratioP1;P2;durP2;ratioP2
6420;SDS011;3243;50.958;7.012;2023-04-22T00:02:13;10.70;;;9.03;;
6420;SDS011;3243;50.958;7.012;2023-04-22T00:04:42;9.10;;;7.93;;
6420;SDS011;3243;50.958;7.012;2023-04-22T00:07:12;8.83;;;7.20;;
6420;SDS011;3243;50.958;7.012;2023-04-22T00:09:39;9.10;;;7.73;;
6420;SDS011;3243;50.958;7.012;2023-04-22T00:12:07;9.13;;;7.83;;
6420;SDS011;3243;50.958;7.012;2023-04-22T00:14:34;10.00;;;7.30;;
6420;SDS011;3243;50.958;7.012;2023-04-22T00:17:01;10.53;;;7.50;;
6420;SDS011;3243;50.958;7.012;2023-04-22T00:19:27;8.53;;;7.07;;
6420;SDS011;3243;50.958;7.012;2023-04-22T00:21:55;8.87;;;7.13;;
6420;SDS011;3243;50.958;7.012;2023-04-22T00:24:21;8.10;;;6.53;;
6420;SDS011;3243;50.958;7.012;2023-04-22T00:26:48;7.70;;;6.53;;
6420;SDS011;3243;50.958;7.012;2023-04-22T00:29:15;8.77;;;6.93;;
6420;SDS011;3243;50.958;7.012;2023-04-22T00:31:41;7.70;;;6.90;;
6420;SDS011;3243;50.958;7.012;2023-04-22T00:34:08;8.60;;;6.53;;
6420;SDS011;3243;50.958;7.012;2023-04-22T00:36:35;7.80;;;6.13;;
6420;SDS011;3243;50.958;7.012;2023-04-22T00:39:02;8.93;;;6.27;;
6420;SDS011;3243;50.958;7.012;2023-04-22T00:41:29;8.37;;;6.37;;
6420;SDS011;3243;50.958;7.012;2023-04-22T00:43:56;8.43;;;5.97;;
6420;SDS011;3243;50.958;7.012;2023-04-22T00:46:25;6.97;;;6.27;;
6420;SDS011;3243;50.958;7.012;2023-04-22T00:48:52;13.27;;;6.47;;
6420;SDS011;3243;50.958;7.012;2023-04-22T00:51:19;7.93;;;6.40;;
6420;SDS011;3243;50.958;7.012;2023-04-22T00:53:46;6.67;;;5.80;;
6420;SDS011;3243;50.958;7.012;2023-04-22T00:56:12;6.57;;;5.87;;
6420;SDS011;3243;50.958;7.012;2023-04-22T00:58:39;7.30;;;6.30;;
6420;SDS011;3243;50.958;7.012;2023-04-22T01:01:06;8.13;;;5.70;;
6420;SDS011;3243;50.958;7.012;2023-04-22T01:03:34;7.47;;;5.80;;
6420;SDS011;3243;50.958;7.012;2023-04-22T01:06:03;7.13;;;5.37;;
6420;SDS011;3243;50.958;7.012;2023-04-22T01:08:30;5.13;;;4.63;;
6420;SDS011;3243;50.958;7.012;2023-04-22T01:10:58;9.37;;;5.70;;
6420;SDS011;3243;50.958;7.012;2023-04-22T01:13:25;6.43;;;5.63;;
6420;SDS011;3243;50.958;7.012;2023-04-22T01:15:52;8.97;;;5.60;;
6420;SDS011;3243;50.958;7.012;2023-04-22T01:18:19;6.00;;;5.27;;
6420;SDS011;3243;50.958;7.012;2023-04-22T01:20:47;6.30;;;5.40;;
6420;SDS011;3243;50.958;7.012;2023-04-22T01:23:20;7.67;;;5.80;;
6420;SDS011;3243;50.958;7.012;2023-04-22T01:25:48;7.43;;;5.37;;
6420;SDS011;3243;50.958;7.012;2023-04-22T01:28:15;7.03;;;5.67;;
6420;SDS011;3243;50.958;7.012;2023-04-22T01:30:42;5.37;;;4.87;;
6420;SDS011;3243;50.958;7.012;2023-04-22T01:33:10;5.87;;;5.27;;
6420;SDS011;3243;50.958;7.012;2023-04-22T01:35:38;7.00;;;5.30;;
6420;SDS011;3243;50.958;7.012;2023-04-22T01:38:06;5.83;;;5.23;;
6420;SDS011;3243;50.958;7.012;2023-04-22T01:40:34;5.73;;;5.13;;
6420;SDS011;3243;50.958;7.012;2023-04-22T01:43:03;7.47;;;5.53;;
6420;SDS011;3243;50.958;7.012;2023-04-22T01:45:30;5.17;;;4.67;;
6420;SDS011;3243;50.958;7.012;2023-04-22T01:47:57;7.17;;;5.23;;
6420;SDS011;3243;50.958;7.012;2023-04-22T01:50:23;6.23;;;5.27;;
6420;SDS011;3243;50.958;7.012;2023-04-22T01:52:50;5.77;;;5.17;;
6420;SDS011;3243;50.958;7.012;2023-04-22T01:55:18;7.30;;;5.50;;
6420;SDS011;3243;50.958;7.012;2023-04-22T01:57:45;6.07;;;5.47;;
6420;SDS011;3243;50.958;7.012;2023-04-22T02:00:12;7.07;;;4.90;;
6420;SDS011;3243;50.958;7.012;2023-04-22T02:02:38;5.97;;;5.00;;
6420;SDS011;3243;50.958;7.012;2023-04-22T02:05:06;5.40;;;4.33;;
6420;SDS011;3243;50.958;7.012;2023-04-22T02:07:33;5.87;;;4.87;;
6420;SDS011;3243;50.958;7.012;2023-04-22T02:10:02;8.30;;;5.37;;
6420;SDS011;3243;50.958;7.012;2023-04-22T02:12:30;5.07;;;4.57;;
6420;SDS011;3243;50.958;7.012;2023-04-22T02:14:57;5.47;;;4.87;;
6420;SDS011;3243;50.958;7.012;2023-04-22T02:17:24;6.23;;;4.80;;
6420;SDS011;3243;50.958;7.012;2023-04-22T02:19:52;6.27;;;5.10;;
6420;SDS011;3243;50.958;7.012;2023-04-22T02:22:19;7.30;;;4.80;;
6420;SDS011;3243;50.958;7.012;2023-04-22T02:24:46;5.53;;;4.97;;
6420;SDS011;3243;50.958;7.012;2023-04-22T02:27:13;7.03;;;5.00;;
6420;SDS011;3243;50.958;7.012;2023-04-22T02:29:39;7.30;;;5.33;;
6420;SDS011;3243;50.958;7.012;2023-04-22T02:32:07;6.93;;;5.83;;
6420;SDS011;3243;50.958;7.012;2023-04-22T02:34:33;5.57;;;5.07;;
6420;SDS011;3243;50.958;7.012;2023-04-22T02:37:01;6.80;;;5.77;;
6420;SDS011;3243;50.958;7.012;2023-04-22T02:39:28;5.90;;;5.27;;
6420;SDS011;3243;50.958;7.012;2023-04-22T02:41:55;7.43;;;5.77;;
6420;SDS011;3243;50.958;7.012;2023-04-22T02:44:21;8.63;;;5.50;;
6420;SDS011;3243;50.958;7.012;2023-04-22T02:46:48;5.50;;;5.00;;
6420;SDS011;3243;50.958;7.012;2023-04-22T02:49:15;9.13;;;5.83;;
6420;SDS011;3243;50.958;7.012;2023-04-22T02:51:42;6.93;;;5.40;;
6420;SDS011;3243;50.958;7.012;2023-04-22T02:54:08;5.37;;;4.87;;
6420;SDS011;3243;50.958;7.012;2023-04-22T02:56:35;5.63;;;4.93;;
6420;SDS011;3243;50.958;7.012;2023-04-22T02:59:02;5.73;;;5.13;;
6420;SDS011;3243;50.958;7.012;2023-04-22T03:01:29;6.47;;;5.30;;
6420;SDS011;3243;50.958;7.012;2023-04-22T03:03:56;6.53;;;5.23;;
6420;SDS011;3243;50.958;7.012;2023-04-22T03:06:23;5.33;;;4.83;;
6420;SDS011;3243;50.958;7.012;2023-04-22T03:08:50;6.10;;;4.77;;
6420;SDS011;3243;50.958;7.012;2023-04-22T03:11:16;5.60;;;4.80;;
6420;SDS011;3243;50.958;7.012;2023-04-22T03:13:43;5.70;;;4.77;;
6420;SDS011;3243;50.958;7.012;2023-04-22T03:16:10;5.97;;;4.93;;
6420;SDS011;3243;50.958;7.012;2023-04-22T03:18:36;7.13;;;5.37;;
6420;SDS011;3243;50.958;7.012;2023-04-22T03:21:08;5.53;;;4.77;;
6420;SDS011;3243;50.958;7.012;2023-04-22T03:23:34;5.20;;;4.70;;
6420;SDS011;3243;50.958;7.012;2023-04-22T03:26:01;5.13;;;4.63;;
6420;SDS011;3243;50.958;7.012;2023-04-22T03:28:28;6.33;;;4.80;;
6420;SDS011;3243;50.958;7.012;2023-04-22T03:30:54;5.97;;;4.97;;
6420;SDS011;3243;50.958;7.012;2023-04-22T03:33:21;5.53;;;4.97;;
6420;SDS011;3243;50.958;7.012;2023-04-22T03:35:48;6.13;;;4.80;;
6420;SDS011;3243;50.958;7.012;2023-04-22T03:38:15;5.23;;;4.63;;
6420;SDS011;3243;50.958;7.012;2023-04-22T03:40:42;5.53;;;4.93;;
6420;SDS011;3243;50.958;7.012;2023-04-22T03:43:08;5.93;;;5.33;;
6420;SDS011;3243;50.958;7.012;2023-04-22T03:45:35;5.10;;;4.60;;
6420;SDS011;3243;50.958;7.012;2023-04-22T03:48:02;4.63;;;4.23;;
6420;SDS011;3243;50.958;7.012;2023-04-22T03:50:29;7.50;;;4.50;;
6420;SDS011;3243;50.958;7.012;2023-04-22T03:52:56;6.70;;;4.53;;
6420;SDS011;3243;50.958;7.012;2023-04-22T03:55:23;5.37;;;4.77;;
6420;SDS011;3243;50.958;7.012;2023-04-22T03:57:50;5.53;;;4.93;;
6420;SDS011;3243;50.958;7.012;2023-04-22T04:00:16;6.63;;;4.03;;
6420;SDS011;3243;50.958;7.012;2023-04-22T04:02:43;5.83;;;4.90;;
6420;SDS011;3243;50.958;7.012;2023-04-22T04:05:10;5.13;;;4.63;;
6420;SDS011;3243;50.958;7.012;2023-04-22T04:07:37;5.37;;;4.50;;
6420;SDS011;3243;50.958;7.012;2023-04-22T04:10:04;5.57;;;4.30;;
6420;SDS011;3243;50.958;7.012;2023-04-22T04:12:31;4.70;;;4.00;;
6420;SDS011;3243;50.958;7.012;2023-04-22T04:14:58;5.30;;;3.80;;
6420;SDS011;3243;50.958;7.012;2023-04-22T04:17:25;4.57;;;4.07;;
6420;SDS011;3243;50.958;7.012;2023-04-22T04:19:54;3.97;;;3.63;;
6420;SDS011;3243;50.958;7.012;2023-04-22T04:22:20;5.70;;;3.80;;
6420;SDS011;3243;50.958;7.012;2023-04-22T04:24:47;4.53;;;3.83;;
6420;SDS011;3243;50.958;7.012;2023-04-22T04:27:14;5.33;;;4.20;;
6420;SDS011;3243;50.958;7.012;2023-04-22T04:29:41;5.30;;;3.93;;
6420;SDS011;3243;50.958;7.012;2023-04-22T04:32:08;4.63;;;3.67;;
6420;SDS011;3243;50.958;7.012;2023-04-22T04:34:35;5.10;;;3.87;;
6420;SDS011;3243;50.958;7.012;2023-04-22T04:37:04;4.03;;;3.47;;
6420;SDS011;3243;50.958;7.012;2023-04-22T04:39:31;3.50;;;3.20;;
6420;SDS011;3243;50.958;7.012;2023-04-22T04:41:58;3.93;;;3.60;;
6420;SDS011;3243;50.958;7.012;2023-04-22T04:44:25;4.40;;;4.00;;
6420;SDS011;3243;50.958;7.012;2023-04-22T04:46:52;4.10;;;3.60;;
6420;SDS011;3243;50.958;7.012;2023-04-22T04:49:20;5.07;;;4.00;;
6420;SDS011;3243;50.958;7.012;2023-04-22T04:51:47;3.97;;;3.57;;
6420;SDS011;3243;50.958;7.012;2023-04-22T04:54:14;4.13;;;3.70;;
6420;SDS011;3243;50.958;7.012;2023-04-22T04:56:41;4.50;;;3.70;;
6420;SDS011;3243;50.958;7.012;2023-04-22T04:59:08;4.87;;;3.63;;
6420;SDS011;3243;50.958;7.012;2023-04-22T05:01:35;4.40;;;3.00;;
6420;SDS011;3243;50.958;7.012;2023-04-22T05:04:02;3.70;;;3.37;;
6420;SDS011;3243;50.958;7.012;2023-04-22T05:06:29;3.90;;;3.50;;
6420;SDS011;3243;50.958;7.012;2023-04-22T05:08:56;4.73;;;3.60;;
6420;SDS011;3243;50.958;7.012;2023-04-22T05:11:23;4.50;;;3.27;;
6420;SDS011;3243;50.958;7.012;2023-04-22T05:13:50;3.70;;;3.40;;
6420;SDS011;3243;50.958;7.012;2023-04-22T05:16:16;6.93;;;3.20;;
6420;SDS011;3243;50.958;7.012;2023-04-22T05:18:43;4.87;;;3.40;;
6420;SDS011;3243;50.958;7.012;2023-04-22T05:21:10;3.40;;;3.00;;
6420;SDS011;3243;50.958;7.012;2023-04-22T05:23:37;3.80;;;3.10;;
6420;SDS011;3243;50.958;7.012;2023-04-22T05:26:04;3.90;;;3.40;;
6420;SDS011;3243;50.958;7.012;2023-04-22T05:28:31;3.50;;;3.20;;
6420;SDS011;3243;50.958;7.012;2023-04-22T05:30:57;3.27;;;2.97;;
6420;SDS011;3243;50.958;7.012;2023-04-22T05:33:24;4.43;;;3.20;;
6420;SDS011;3243;50.958;7.012;2023-04-22T05:35:51;4.00;;;3.03;;
6420;SDS011;3243;50.958;7.012;2023-04-22T05:38:18;3.07;;;2.77;;
6420;SDS011;3243;50.958;7.012;2023-04-22T05:40:45;3.20;;;2.90;;
6420;SDS011;3243;50.958;7.012;2023-04-22T05:43:12;3.30;;;3.00;;
6420;SDS011;3243;50.958;7.012;2023-04-22T05:45:38;3.37;;;3.07;;
6420;SDS011;3243;50.958;7.012;2023-04-22T05:48:05;3.10;;;2.80;;
6420;SDS011;3243;50.958;7.012;2023-04-22T05:50:32;3.10;;;2.83;;
6420;SDS011;3243;50.958;7.012;2023-04-22T05:52:59;4.23;;;2.60;;
6420;SDS011;3243;50.958;7.012;2023-04-22T05:55:26;2.87;;;2.50;;
6420;SDS011;3243;50.958;7.012;2023-04-22T05:57:52;3.97;;;2.60;;
6420;SDS011;3243;50.958;7.012;2023-04-22T06:00:19;2.93;;;2.60;;
6420;SDS011;3243;50.958;7.012;2023-04-22T06:02:46;3.93;;;3.00;;
6420;SDS011;3243;50.958;7.012;2023-04-22T06:05:13;3.83;;;2.70;;
6420;SDS011;3243;50.958;7.012;2023-04-22T06:07:39;3.43;;;2.63;;
6420;SDS011;3243;50.958;7.012;2023-04-22T06:10:07;3.83;;;2.60;;
6420;SDS011;3243;50.958;7.012;2023-04-22T06:12:34;3.00;;;2.57;;
6420;SDS011;3243;50.958;7.012;2023-04-22T06:15:01;4.43;;;2.67;;
6420;SDS011;3243;50.958;7.012;2023-04-22T06:17:27;3.03;;;2.60;;
6420;SDS011;3243;50.958;7.012;2023-04-22T06:19:54;3.00;;;2.70;;
6420;SDS011;3243;50.958;7.012;2023-04-22T06:22:21;2.77;;;2.57;;
6420;SDS011;3243;50.958;7.012;2023-04-22T06:24:47;3.60;;;2.97;;
6420;SDS011;3243;50.958;7.012;2023-04-22T06:27:14;3.37;;;2.67;;
6420;SDS011;3243;50.958;7.012;2023-04-22T06:29:41;2.93;;;2.63;;
6420;SDS011;3243;50.958;7.012;2023-04-22T06:32:07;2.80;;;2.53;;
6420;SDS011;3243;50.958;7.012;2023-04-22T06:34:34;4.20;;;2.50;;
6420;SDS011;3243;50.958;7.012;2023-04-22T06:37:01;4.20;;;2.33;;
6420;SDS011;3243;50.958;7.012;2023-04-22T06:39:27;3.00;;;2.70;;
6420;SDS011;3243;50.958;7.012;2023-04-22T06:41:54;2.97;;;2.70;;
6420;SDS011;3243;50.958;7.012;2023-04-22T06:44:21;3.60;;;2.50;;
6420;SDS011;3243;50.958;7.012;2023-04-22T06:46:50;3.60;;;2.43;;
6420;SDS011;3243;50.958;7.012;2023-04-22T06:49:17;3.33;;;2.40;;
6420;SDS011;3243;50.958;7.012;2023-04-22T06:51:44;3.93;;;2.33;;
6420;SDS011;3243;50.958;7.012;2023-04-22T06:54:10;2.70;;;2.50;;
6420;SDS011;3243;50.958;7.012;2023-04-22T06:56:37;2.63;;;2.40;;
6420;SDS011;3243;50.958;7.012;2023-04-22T06:59:04;2.53;;;2.27;;
6420;SDS011;3243;50.958;7.012;2023-04-22T07:01:32;5.40;;;2.40;;
6420;SDS011;3243;50.958;7.012;2023-04-22T07:03:59;3.43;;;2.50;;
6420;SDS011;3243;50.958;7.012;2023-04-22T07:06:26;3.60;;;2.37;;
6420;SDS011;3243;50.958;7.012;2023-04-22T07:08:53;2.40;;;2.10;;
6420;SDS011;3243;50.958;7.012;2023-04-22T07:11:20;2.90;;;2.30;;
6420;SDS011;3243;50.958;7.012;2023-04-22T07:13:47;2.33;;;2.13;;
6420;SDS011;3243;50.958;7.012;2023-04-22T07:16:13;3.40;;;2.23;;
6420;SDS011;3243;50.958;7.012;2023-04-22T07:18:40;3.33;;;2.57;;
6420;SDS011;3243;50.958;7.012;2023-04-22T07:21:07;2.93;;;2.30;;
6420;SDS011;3243;50.958;7.012;2023-04-22T07:23:34;3.47;;;2.33;;
6420;SDS011;3243;50.958;7.012;2023-04-22T07:26:01;2.80;;;2.50;;
6420;SDS011;3243;50.958;7.012;2023-04-22T07:28:27;2.40;;;2.20;;
6420;SDS011;3243;50.958;7.012;2023-04-22T07:30:54;2.40;;;2.20;;
6420;SDS011;3243;50.958;7.012;2023-04-22T07:33:21;2.40;;;2.20;;
6420;SDS011;3243;50.958;7.012;2023-04-22T07:35:48;3.10;;;2.30;;
6420;SDS011;3243;50.958;7.012;2023-04-22T07:38:15;3.33;;;2.20;;
6420;SDS011;3243;50.958;7.012;2023-04-22T07:40:41;2.50;;;2.30;;
6420;SDS011;3243;50.958;7.012;2023-04-22T07:43:09;3.23;;;2.27;;
6420;SDS011;3243;50.958;7.012;2023-04-22T07:45:36;2.73;;;2.10;;
6420;SDS011;3243;50.958;7.012;2023-04-22T07:48:03;3.10;;;2.30;;
6420;SDS011;3243;50.958;7.012;2023-04-22T07:50:30;3.07;;;2.33;;
6420;SDS011;3243;50.958;7.012;2023-04-22T07:52:56;2.30;;;2.07;;
6420;SDS011;3243;50.958;7.012;2023-04-22T07:55:23;4.17;;;2.30;;
6420;SDS011;3243;50.958;7.012;2023-04-22T07:57:50;4.30;;;3.70;;
6420;SDS011;3243;50.958;7.012;2023-04-22T08:00:17;7.43;;;5.33;;
6420;SDS011;3243;50.958;7.012;2023-04-22T08:02:43;4.27;;;2.90;;
6420;SDS011;3243;50.958;7.012;2023-04-22T08:05:12;7.67;;;4.80;;
6420;SDS011;3243;50.958;7.012;2023-04-22T08:07:38;4.10;;;3.33;;
6420;SDS011;3243;50.958;7.012;2023-04-22T08:10:05;4.50;;;2.95;;
6420;SDS011;3243;50.958;7.012;2023-04-22T08:12:33;2.83;;;2.50;;
6420;SDS011;3243;50.958;7.012;2023-04-22T08:15:00;2.70;;;2.27;;
6420;SDS011;3243;50.958;7.012;2023-04-22T08:17:27;2.50;;;2.10;;
6420;SDS011;3243;50.958;7.012;2023-04-22T08:19:53;3.93;;;2.27;;
6420;SDS011;3243;50.958;7.012;2023-04-22T08:22:20;2.23;;;2.00;;
6420;SDS011;3243;50.958;7.012;2023-04-22T08:24:48;3.05;;;2.10;;
6420;SDS011;3243;50.958;7.012;2023-04-22T08:27:15;2.70;;;2.00;;
6420;SDS011;3243;50.958;7.012;2023-04-22T08:29:44;3.07;;;2.20;;
6420;SDS011;3243;50.958;7.012;2023-04-22T08:32:11;2.63;;;2.03;;
6420;SDS011;3243;50.958;7.012;2023-04-22T08:34:37;2.10;;;2.00;;
6420;SDS011;3243;50.958;7.012;2023-04-22T08:37:04;3.45;;;2.00;;
6420;SDS011;3243;50.958;7.012;2023-04-22T08:39:31;3.67;;;2.07;;
6420;SDS011;3243;50.958;7.012;2023-04-22T08:41:58;3.80;;;2.03;;
6420;SDS011;3243;50.958;7.012;2023-04-22T08:44:24;2.83;;;2.33;;
6420;SDS011;3243;50.958;7.012;2023-04-22T08:46:52;2.73;;;2.30;;
6420;SDS011;3243;50.958;7.012;2023-04-22T08:49:19;2.67;;;2.20;;
6420;SDS011;3243;50.958;7.012;2023-04-22T08:51:49;2.10;;;1.92;;
6420;SDS011;3243;50.958;7.012;2023-04-22T08:54:18;2.90;;;2.10;;
6420;SDS011;3243;50.958;7.012;2023-04-22T08:56:44;3.28;;;2.10;;
6420;SDS011;3243;50.958;7.012;2023-04-22T08:59:15;3.35;;;1.90;;
6420;SDS011;3243;50.958;7.012;2023-04-22T09:01:42;3.60;;;1.90;;
6420;SDS011;3243;50.958;7.012;2023-04-22T09:04:09;3.95;;;1.92;;
6420;SDS011;3243;50.958;7.012;2023-04-22T09:06:37;3.50;;;2.08;;
6420;SDS011;3243;50.958;7.012;2023-04-22T09:09:04;4.28;;;2.35;;
6420;SDS011;3243;50.958;7.012;2023-04-22T09:11:31;3.53;;;2.20;;
6420;SDS011;3243;50.958;7.012;2023-04-22T09:13:58;2.33;;;1.98;;
6420;SDS011;3243;50.958;7.012;2023-04-22T09:16:25;3.17;;;2.28;;
6420;SDS011;3243;50.958;7.012;2023-04-22T09:18:54;3.67;;;2.13;;
6420;SDS011;3243;50.958;7.012;2023-04-22T09:21:24;2.08;;;1.83;;
6420;SDS011;3243;50.958;7.012;2023-04-22T09:23:54;3.30;;;2.47;;
6420;SDS011;3243;50.958;7.012;2023-04-22T09:26:22;3.35;;;2.20;;
6420;SDS011;3243;50.958;7.012;2023-04-22T09:28:50;3.30;;;2.17;;
6420;SDS011;3243;50.958;7.012;2023-04-22T09:31:24;3.42;;;2.00;;
6420;SDS011;3243;50.958;7.012;2023-04-22T09:33:52;2.67;;;2.00;;
6420;SDS011;3243;50.958;7.012;2023-04-22T09:36:21;2.80;;;1.88;;
6420;SDS011;3243;50.958;7.012;2023-04-22T09:38:53;3.25;;;2.00;;
6420;SDS011;3243;50.958;7.012;2023-04-22T09:41:27;5.07;;;1.90;;
6420;SDS011;3243;50.958;7.012;2023-04-22T09:43:55;3.65;;;2.30;;
6420;SDS011;3243;50.958;7.012;2023-04-22T09:46:24;4.80;;;2.20;;
6420;SDS011;3243;50.958;7.012;2023-04-22T09:48:53;3.85;;;2.10;;
6420;SDS011;3243;50.958;7.012;2023-04-22T09:51:21;2.53;;;1.90;;
6420;SDS011;3243;50.958;7.012;2023-04-22T09:54:02;2.65;;;1.90;;
6420;SDS011;3243;50.958;7.012;2023-04-22T09:56:41;2.22;;;1.88;;
6420;SDS011;3243;50.958;7.012;2023-04-22T09:59:19;3.50;;;2.10;;
6420;SDS011;3243;50.958;7.012;2023-04-22T10:01:51;4.18;;;2.28;;
6420;SDS011;3243;50.958;7.012;2023-04-22T10:04:19;2.25;;;1.85;;
6420;SDS011;3243;50.958;7.012;2023-04-22T10:06:53;3.63;;;2.10;;
6420;SDS011;3243;50.958;7.012;2023-04-22T10:09:20;3.83;;;2.47;;
6420;SDS011;3243;50.958;7.012;2023-04-22T10:11:52;2.85;;;2.05;;
6420;SDS011;3243;50.958;7.012;2023-04-22T10:14:20;3.08;;;2.08;;
6420;SDS011;3243;50.958;7.012;2023-04-22T10:16:48;2.65;;;1.95;;
6420;SDS011;3243;50.958;7.012;2023-04-22T10:19:22;2.58;;;2.10;;
6420;SDS011;3243;50.958;7.012;2023-04-22T10:21:54;2.58;;;2.08;;
6420;SDS011;3243;50.958;7.012;2023-04-22T10:24:26;3.65;;;2.20;;
6420;SDS011;3243;50.958;7.012;2023-04-22T10:26:57;3.47;;;2.45;;
6420;SDS011;3243;50.958;7.012;2023-04-22T10:29:34;3.13;;;1.92;;
6420;SDS011;3243;50.958;7.012;2023-04-22T10:32:22;3.63;;;2.10;;
6420;SDS011;3243;50.958;7.012;2023-04-22T10:35:06;2.75;;;1.90;;
6420;SDS011;3243;50.958;7.012;2023-04-22T10:37:34;4.10;;;2.00;;
6420;SDS011;3243;50.958;7.012;2023-04-22T10:40:11;3.65;;;2.08;;
6420;SDS011;3243;50.958;7.012;2023-04-22T10:42:45;2.53;;;1.80;;
6420;SDS011;3243;50.958;7.012;2023-04-22T10:45:14;4.70;;;2.22;;
6420;SDS011;3243;50.958;7.012;2023-04-22T10:47:41;4.97;;;2.35;;
6420;SDS011;3243;50.958;7.012;2023-04-22T10:50:24;3.40;;;2.08;;
6420;SDS011;3243;50.958;7.012;2023-04-22T10:52:56;3.47;;;2.17;;
6420;SDS011;3243;50.958;7.012;2023-04-22T10:55:25;3.22;;;2.20;;
6420;SDS011;3243;50.958;7.012;2023-04-22T10:58:19;2.30;;;2.00;;
6420;SDS011;3243;50.958;7.012;2023-04-22T11:00:47;2.80;;;1.80;;
6420;SDS011;3243;50.958;7.012;2023-04-22T11:03:23;3.92;;;2.10;;
6420;SDS011;3243;50.958;7.012;2023-04-22T11:06:12;2.60;;;1.60;;
6420;SDS011;3243;50.958;7.012;2023-04-22T11:08:43;4.78;;;2.08;;
6420;SDS011;3243;50.958;7.012;2023-04-22T11:11:17;3.75;;;1.95;;
6420;SDS011;3243;50.958;7.012;2023-04-22T11:13:45;5.63;;;2.45;;
6420;SDS011;3243;50.958;7.012;2023-04-22T11:16:15;4.15;;;2.30;;
6420;SDS011;3243;50.958;7.012;2023-04-22T11:18:45;3.03;;;2.03;;
6420;SDS011;3243;50.958;7.012;2023-04-22T11:21:12;3.33;;;2.10;;
6420;SDS011;3243;50.958;7.012;2023-04-22T11:23:47;3.85;;;1.98;;
6420;SDS011;3243;50.958;7.012;2023-04-22T11:26:16;4.30;;;2.50;;
6420;SDS011;3243;50.958;7.012;2023-04-22T11:28:46;3.17;;;2.10;;
6420;SDS011;3243;50.958;7.012;2023-04-22T11:31:13;2.78;;;2.28;;
6420;SDS011;3243;50.958;7.012;2023-04-22T11:33:40;4.50;;;2.22;;
6420;SDS011;3243;50.958;7.012;2023-04-22T11:36:09;5.10;;;2.33;;
6420;SDS011;3243;50.958;7.012;2023-04-22T11:38:36;4.30;;;2.25;;
6420;SDS011;3243;50.958;7.012;2023-04-22T11:41:03;6.28;;;2.35;;
6420;SDS011;3243;50.958;7.012;2023-04-22T11:43:30;4.35;;;2.40;;
6420;SDS011;3243;50.958;7.012;2023-04-22T11:45:57;3.92;;;2.50;;
6420;SDS011;3243;50.958;7.012;2023-04-22T11:48:24;3.60;;;2.65;;
6420;SDS011;3243;50.958;7.012;2023-04-22T11:51:05;5.40;;;2.75;;
6420;SDS011;3243;50.958;7.012;2023-04-22T11:53:34;5.65;;;2.70;;
6420;SDS011;3243;50.958;7.012;2023-04-22T11:56:02;3.70;;;2.33;;
6420;SDS011;3243;50.958;7.012;2023-04-22T11:58:30;4.28;;;2.45;;
6420;SDS011;3243;50.958;7.012;2023-04-22T12:00:57;6.10;;;2.70;;
6420;SDS011;3243;50.958;7.012;2023-04-22T12:03:25;7.18;;;2.55;;
6420;SDS011;3243;50.958;7.012;2023-04-22T12:06:00;5.75;;;2.67;;
6420;SDS011;3243;50.958;7.012;2023-04-22T12:10:58;7.53;;;2.55;;
6420;SDS011;3243;50.958;7.012;2023-04-22T12:13:27;3.85;;;2.47;;
6420;SDS011;3243;50.958;7.012;2023-04-22T12:15:59;7.55;;;3.30;;
6420;SDS011;3243;50.958;7.012;2023-04-22T12:18:38;3.05;;;2.50;;
6420;SDS011;3243;50.958;7.012;2023-04-22T12:21:09;3.97;;;2.22;;
6420;SDS011;3243;50.958;7.012;2023-04-22T12:26:11;3.53;;;2.25;;
6420;SDS011;3243;50.958;7.012;2023-04-22T12:28:39;4.20;;;2.40;;
6420;SDS011;3243;50.958;7.012;2023-04-22T12:31:06;5.32;;;2.60;;
6420;SDS011;3243;50.958;7.012;2023-04-22T12:33:34;5.85;;;2.45;;
6420;SDS011;3243;50.958;7.012;2023-04-22T12:36:02;2.72;;;2.22;;
6420;SDS011;3243;50.958;7.012;2023-04-22T12:38:29;4.05;;;2.50;;
6420;SDS011;3243;50.958;7.012;2023-04-22T12:40:56;3.85;;;2.28;;
6420;SDS011;3243;50.958;7.012;2023-04-22T12:43:24;3.80;;;2.30;;
6420;SDS011;3243;50.958;7.012;2023-04-22T12:45:50;6.38;;;2.60;;
6420;SDS011;3243;50.958;7.012;2023-04-22T12:48:17;4.45;;;2.90;;
6420;SDS011;3243;50.958;7.012;2023-04-22T12:50:44;4.65;;;3.20;;
6420;SDS011;3243;50.958;7.012;2023-04-22T12:53:11;5.50;;;2.80;;
6420;SDS011;3243;50.958;7.012;2023-04-22T12:55:38;5.75;;;2.40;;
6420;SDS011;3243;50.958;7.012;2023-04-22T12:58:06;3.08;;;2.40;;
6420;SDS011;3243;50.958;7.012;2023-04-22T13:00:33;3.42;;;2.38;;
6420;SDS011;3243;50.958;7.012;2023-04-22T13:02:59;4.75;;;2.35;;
6420;SDS011;3243;50.958;7.012;2023-04-22T13:05:27;5.00;;;2.40;;
6420;SDS011;3243;50.958;7.012;2023-04-22T13:07:53;3.50;;;2.40;;
6420;SDS011;3243;50.958;7.012;2023-04-22T13:10:23;3.83;;;2.40;;
6420;SDS011;3243;50.958;7.012;2023-04-22T13:12:53;4.90;;;2.38;;
6420;SDS011;3243;50.958;7.012;2023-04-22T13:15:31;5.18;;;2.45;;
6420;SDS011;3243;50.958;7.012;2023-04-22T13:17:58;3.58;;;2.58;;
6420;SDS011;3243;50.958;7.012;2023-04-22T13:20:25;3.05;;;2.35;;
6420;SDS011;3243;50.958;7.012;2023-04-22T13:22:51;3.13;;;2.33;;
6420;SDS011;3243;50.958;7.012;2023-04-22T13:25:18;4.00;;;2.20;;
6420;SDS011;3243;50.958;7.012;2023-04-22T13:27:45;3.25;;;2.42;;
6420;SDS011;3243;50.958;7.012;2023-04-22T13:30:12;2.53;;;2.00;;
6420;SDS011;3243;50.958;7.012;2023-04-22T13:32:39;4.65;;;2.50;;
6420;SDS011;3243;50.958;7.012;2023-04-22T13:35:06;3.70;;;2.47;;
6420;SDS011;3243;50.958;7.012;2023-04-22T13:37:35;2.50;;;2.00;;
6420;SDS011;3243;50.958;7.012;2023-04-22T13:40:02;4.07;;;2.33;;
6420;SDS011;3243;50.958;7.012;2023-04-22T13:42:31;4.22;;;3.17;;
6420;SDS011;3243;50.958;7.012;2023-04-22T13:44:57;3.13;;;2.50;;
6420;SDS011;3243;50.958;7.012;2023-04-22T13:47:24;5.38;;;3.17;;
6420;SDS011;3243;50.958;7.012;2023-04-22T13:49:51;3.45;;;2.70;;
6420;SDS011;3243;50.958;7.012;2023-04-22T13:52:17;4.32;;;2.97;;
6420;SDS011;3243;50.958;7.012;2023-04-22T13:54:44;6.63;;;4.00;;
6420;SDS011;3243;50.958;7.012;2023-04-22T13:57:11;12.65;;;7.72;;
6420;SDS011;3243;50.958;7.012;2023-04-22T13:59:38;8.18;;;5.18;;
6420;SDS011;3243;50.958;7.012;2023-04-22T14:02:06;11.55;;;8.95;;
6420;SDS011;3243;50.958;7.012;2023-04-22T14:04:33;13.45;;;9.75;;
6420;SDS011;3243;50.958;7.012;2023-04-22T14:07:00;12.07;;;8.50;;
6420;SDS011;3243;50.958;7.012;2023-04-22T14:09:27;6.57;;;4.80;;
6420;SDS011;3243;50.958;7.012;2023-04-22T14:11:53;5.72;;;3.03;;
6420;SDS011;3243;50.958;7.012;2023-04-22T14:14:20;5.13;;;2.85;;
6420;SDS011;3243;50.958;7.012;2023-04-22T14:16:47;6.00;;;3.30;;
6420;SDS011;3243;50.958;7.012;2023-04-22T14:19:14;10.15;;;4.38;;
6420;SDS011;3243;50.958;7.012;2023-04-22T14:21:41;7.55;;;4.20;;
6420;SDS011;3243;50.958;7.012;2023-04-22T14:24:08;6.22;;;3.50;;
6420;SDS011;3243;50.958;7.012;2023-04-22T14:26:35;4.32;;;3.00;;
6420;SDS011;3243;50.958;7.012;2023-04-22T14:29:01;5.53;;;3.00;;
6420;SDS011;3243;50.958;7.012;2023-04-22T14:31:29;5.25;;;3.10;;
6420;SDS011;3243;50.958;7.012;2023-04-22T14:33:56;6.45;;;3.10;;
6420;SDS011;3243;50.958;7.012;2023-04-22T14:36:22;6.75;;;3.13;;
6420;SDS011;3243;50.958;7.012;2023-04-22T14:38:49;6.60;;;2.95;;
6420;SDS011;3243;50.958;7.012;2023-04-22T14:41:16;6.00;;;3.10;;
6420;SDS011;3243;50.958;7.012;2023-04-22T14:43:43;6.75;;;2.90;;
6420;SDS011;3243;50.958;7.012;2023-04-22T14:46:09;6.05;;;3.00;;
6420;SDS011;3243;50.958;7.012;2023-04-22T14:48:36;5.22;;;2.97;;
6420;SDS011;3243;50.958;7.012;2023-04-22T14:51:04;4.88;;;3.05;;
6420;SDS011;3243;50.958;7.012;2023-04-22T14:53:31;4.97;;;3.35;;
6420;SDS011;3243;50.958;7.012;2023-04-22T14:55:58;4.50;;;3.42;;
6420;SDS011;3243;50.958;7.012;2023-04-22T14:58:25;4.67;;;2.80;;
6420;SDS011;3243;50.958;7.012;2023-04-22T15:00:57;4.13;;;2.70;;
6420;SDS011;3243;50.958;7.012;2023-04-22T15:03:24;4.00;;;3.10;;
6420;SDS011;3243;50.958;7.012;2023-04-22T15:05:53;6.90;;;3.50;;
6420;SDS011;3243;50.958;7.012;2023-04-22T15:08:20;4.63;;;2.97;;
6420;SDS011;3243;50.958;7.012;2023-04-22T15:10:50;4.60;;;2.88;;
6420;SDS011;3243;50.958;7.012;2023-04-22T15:13:17;6.47;;;3.05;;
6420;SDS011;3243;50.958;7.012;2023-04-22T15:15:44;3.87;;;2.40;;
6420;SDS011;3243;50.958;7.012;2023-04-22T15:18:12;2.67;;;2.20;;
6420;SDS011;3243;50.958;7.012;2023-04-22T15:20:38;2.87;;;2.43;;
6420;SDS011;3243;50.958;7.012;2023-04-22T15:23:05;4.67;;;2.50;;
6420;SDS011;3243;50.958;7.012;2023-04-22T15:25:32;3.97;;;2.67;;